Time;durP1;ratioP1;P1;durP2;ratioP2;P2;SDS_P1;SDS_P2;PMS_P1;PMS_P2;Temp;Humidity;BMP_temperature;BMP_pressure;BME280_temperature;BME280_humidity;BME280_pressure;Samples;Min_cycle;Max_cycle;Signal;HPM_P1;HPM_P2
2023/01/23 00:00:15;;;;;;;1.73;1.60;;;0.80;99.90;;;;;;5125645;28;20208;-69
2023/01/23 00:02:42;;;;;;;1.83;1.55;;;0.80;99.90;;;;;;5126971;28;20524;-69
2023/01/23 00:05:09;;;;;;;3.35;1.52;;;0.70;99.90;;;;;;5127957;28;20197;-70
2023/01/23 00:07:36;;;;;;;1.40;1.00;;;0.70;99.90;;;;;;5122403;27;20220;-70
2023/01/23 00:10:03;;;;;;;1.65;1.38;;;0.60;99.90;;;;;;5111132;28;20198;-70
2023/01/23 00:12:30;;;;;;;5.88;2.50;;;0.60;99.90;;;;;;5132009;27;20209;-70
2023/01/23 00:14:58;;;;;;;10.90;2.38;;;0.60;99.90;;;;;;5132119;27;20193;-70
2023/01/23 00:17:26;;;;;;;1.85;1.48;;;0.60;99.90;;;;;;5131955;27;20584;-69
2023/01/23 00:19:53;;;;;;;2.15;1.88;;;0.60;99.90;;;;;;5131316;27;20607;-69
2023/01/23 00:22:20;;;;;;;1.27;1.17;;;0.60;99.90;;;;;;5131522;27;20221;-70
2023/01/23 00:24:47;;;;;;;0.40;0.40;;;0.60;99.90;;;;;;5131696;27;20207;-69
2023/01/23 00:27:14;;;;;;;3.13;2.97;;;0.50;99.90;;;;;;5131760;27;20598;-69
2023/01/23 00:29:41;;;;;;;1.13;0.88;;;0.50;99.90;;;;;;5131576;27;20203;-70
2023/01/23 00:32:09;;;;;;;1.45;1.40;;;0.50;99.90;;;;;;5130897;27;20217;-70
2023/01/23 00:34:35;;;;;;;1.15;1.08;;;0.50;99.90;;;;;;5131547;27;21126;-70
2023/01/23 00:37:02;;;;;;;1.85;1.75;;;0.50;99.90;;;;;;5126694;27;20280;-71
2023/01/23 00:39:29;;;;;;;2.00;1.83;;;0.40;99.90;;;;;;5131050;27;20191;-70
2023/01/23 00:41:56;;;;;;;2.05;1.65;;;0.40;99.90;;;;;;5118571;27;20257;-69
2023/01/23 00:44:23;;;;;;;4.20;1.83;;;0.30;99.90;;;;;;5120583;27;20296;-68
2023/01/23 00:46:50;;;;;;;1.13;0.93;;;0.40;99.90;;;;;;5130728;27;20303;-70
2023/01/23 00:49:18;;;;;;;1.52;1.42;;;0.40;99.90;;;;;;5131275;27;20212;-70
2023/01/23 00:51:45;;;;;;;1.50;1.40;;;0.40;99.90;;;;;;5129460;27;20224;-69
2023/01/23 00:54:12;;;;;;;2.70;2.38;;;0.40;99.90;;;;;;5131317;27;20205;-69
2023/01/23 00:56:39;;;;;;;2.50;2.30;;;0.50;99.90;;;;;;5126611;27;20229;-70
2023/01/23 00:59:06;;;;;;;3.13;1.20;;;0.40;99.90;;;;;;5110279;27;20691;-70
2023/01/23 01:01:32;;;;;;;1.92;1.80;;;0.40;99.90;;;;;;5116870;27;20334;-70
2023/01/23 01:04:00;;;;;;;6.05;1.25;;;0.30;99.90;;;;;;5130714;27;20197;-70
2023/01/23 01:06:28;;;;;;;1.70;1.27;;;0.40;99.90;;;;;;5130836;27;20220;-68
2023/01/23 01:08:56;;;;;;;0.60;0.60;;;0.40;99.90;;;;;;5130168;27;20702;-70
2023/01/23 01:11:22;;;;;;;2.42;1.95;;;0.40;99.90;;;;;;5130708;27;20217;-70
2023/01/23 01:13:49;;;;;;;3.00;2.75;;;0.40;99.90;;;;;;5131592;27;20495;-70
2023/01/23 01:16:16;;;;;;;2.08;1.98;;;0.40;99.90;;;;;;5130075;27;20213;-69
2023/01/23 01:18:44;;;;;;;2.20;2.00;;;0.40;99.90;;;;;;5129997;27;20211;-69
2023/01/23 01:21:14;;;;;;;1.15;0.63;;;0.40;99.90;;;;;;5130566;27;20220;-70
2023/01/23 01:23:43;;;;;;;2.35;1.90;;;0.50;99.90;;;;;;5130943;27;20291;-70
2023/01/23 01:26:10;;;;;;;2.08;1.95;;;0.60;99.90;;;;;;5130174;27;20221;-70
2023/01/23 01:28:39;;;;;;;3.15;2.15;;;0.40;99.90;;;;;;5129997;27;20609;-70
2023/01/23 01:31:09;;;;;;;1.15;1.05;;;0.60;99.90;;;;;;5130701;27;20278;-70
2023/01/23 01:33:37;;;;;;;1.02;0.98;;;0.70;99.90;;;;;;5130982;27;20193;-69
2023/01/23 01:36:07;;;;;;;0.90;0.90;;;0.70;99.90;;;;;;5130397;27;20224;-69
2023/01/23 01:38:34;;;;;;;3.00;2.90;;;0.60;99.90;;;;;;5128241;27;20216;-69
2023/01/23 01:41:02;;;;;;;2.58;1.95;;;0.60;99.90;;;;;;5115261;27;20217;-70
2023/01/23 01:43:29;;;;;;;0.85;0.85;;;0.60;99.90;;;;;;5130969;27;20205;-70
2023/01/23 01:46:16;;;;;;;1.25;1.08;;;0.60;99.90;;;;;;5115686;27;20224;-70
2023/01/23 01:48:50;;;;;;;2.67;2.53;;;0.70;99.90;;;;;;5109516;27;20233;-68
2023/01/23 01:51:21;;;;;;;1.67;1.58;;;0.70;99.90;;;;;;5116904;27;20324;-70
2023/01/23 01:54:00;;;;;;;1.13;0.95;;;0.60;99.90;;;;;;5129762;27;20212;-70
2023/01/23 01:56:30;;;;;;;2.42;1.58;;;0.60;99.90;;;;;;5126981;27;20231;-68
2023/01/23 01:58:58;;;;;;;2.90;2.72;;;0.70;99.90;;;;;;5129746;27;20201;-69
2023/01/23 02:01:26;;;;;;;1.50;1.15;;;0.70;99.90;;;;;;5122056;27;20279;-69
2023/01/23 02:03:54;;;;;;;2.55;2.13;;;0.70;99.90;;;;;;5110002;28;20194;-70
2023/01/23 02:06:21;;;;;;;1.48;1.20;;;0.80;99.90;;;;;;5110761;27;20726;-69
2023/01/23 02:08:55;;;;;;;1.35;0.75;;;0.80;99.90;;;;;;5128011;27;20225;-70
2023/01/23 02:11:23;;;;;;;2.08;1.20;;;0.80;99.90;;;;;;5115343;27;20625;-69
2023/01/23 02:13:54;;;;;;;3.40;3.10;;;0.70;99.90;;;;;;5129818;27;20196;-70
2023/01/23 02:16:26;;;;;;;1.30;1.20;;;0.70;99.90;;;;;;5129368;27;20653;-70
2023/01/23 02:18:58;;;;;;;1.85;1.45;;;0.80;99.90;;;;;;5129412;27;20200;-70
2023/01/23 02:21:27;;;;;;;3.40;3.05;;;0.80;99.90;;;;;;5129096;27;20224;-70
2023/01/23 02:24:07;;;;;;;1.80;1.10;;;0.80;99.90;;;;;;5109131;28;20197;-70
2023/01/23 02:26:40;;;;;;;0.80;0.80;;;0.80;99.90;;;;;;5115235;27;20253;-70
2023/01/23 02:29:07;;;;;;;1.05;1.05;;;0.80;99.90;;;;;;5109379;27;20210;-69
2023/01/23 02:31:36;;;;;;;2.35;1.67;;;0.70;99.90;;;;;;5122179;27;20223;-69
2023/01/23 02:34:04;;;;;;;1.58;1.30;;;0.80;99.90;;;;;;5129739;27;20715;-70
2023/01/23 02:36:34;;;;;;;3.65;3.35;;;0.70;99.90;;;;;;5126332;27;20294;-70
2023/01/23 02:39:07;;;;;;;4.90;4.47;;;0.70;99.90;;;;;;5113488;27;20189;-70
2023/01/23 02:41:39;;;;;;;1.80;1.70;;;0.70;99.90;;;;;;5128591;27;20236;-71
2023/01/23 02:44:12;;;;;;;1.90;1.75;;;0.70;99.90;;;;;;5129734;27;20193;-68
2023/01/23 02:46:40;;;;;;;1.52;1.10;;;0.60;99.90;;;;;;5128708;27;20694;-69
2023/01/23 02:49:07;;;;;;;0.68;0.65;;;0.60;99.90;;;;;;5128804;27;20317;-70
2023/01/23 02:51:35;;;;;;;1.25;1.15;;;0.50;99.90;;;;;;5128470;27;20607;-70
2023/01/23 02:54:03;;;;;;;1.63;1.52;;;0.60;99.90;;;;;;5128979;27;20668;-69
2023/01/23 02:56:32;;;;;;;2.42;2.33;;;0.60;99.90;;;;;;5128486;27;20285;-70
2023/01/23 03:01:45;;;;;;;3.80;1.70;;;0.60;99.90;;;;;;5118433;27;20300;-68
2023/01/23 03:04:12;;;;;;;1.80;1.70;;;0.50;99.90;;;;;;5128768;27;20273;-69
2023/01/23 03:06:39;;;;;;;2.88;2.63;;;0.70;99.90;;;;;;5128058;27;20292;-70
2023/01/23 03:09:08;;;;;;;3.20;2.70;;;0.70;99.90;;;;;;5128432;27;20773;-70
2023/01/23 03:11:38;;;;;;;3.45;1.75;;;0.70;99.90;;;;;;5128275;27;20277;-69
2023/01/23 03:14:08;;;;;;;2.15;2.05;;;0.90;99.90;;;;;;5128656;27;20712;-69
2023/01/23 03:16:35;;;;;;;0.77;0.77;;;0.60;99.90;;;;;;5128372;27;20213;-70
2023/01/23 03:19:06;;;;;;;1.95;1.35;;;0.60;99.90;;;;;;5127192;27;20197;-70
2023/01/23 03:21:36;;;;;;;1.83;1.73;;;0.70;99.90;;;;;;5128660;27;20225;-70
2023/01/23 03:24:05;;;;;;;1.83;1.55;;;0.90;99.90;;;;;;5129004;27;20243;-69
2023/01/23 03:26:32;;;;;;;4.82;2.35;;;0.70;99.90;;;;;;5128120;27;20225;-70
2023/01/23 03:31:46;;;;;;;8.10;2.83;;;0.70;99.90;;;;;;5113775;27;20273;-68
2023/01/23 03:34:16;;;;;;;2.00;1.23;;;0.70;99.90;;;;;;5128688;27;20205;-70
2023/01/23 03:36:43;;;;;;;1.52;1.40;;;0.70;99.90;;;;;;5127636;27;20224;-69
2023/01/23 03:41:56;;;;;;;2.50;2.15;;;0.60;99.90;;;;;;5122745;27;20349;-69
2023/01/23 03:44:25;;;;;;;1.05;0.95;;;0.70;99.90;;;;;;5134407;27;20201;-69
2023/01/23 03:46:55;;;;;;;2.38;1.27;;;0.60;99.90;;;;;;5135041;27;20212;-69
2023/01/23 03:49:22;;;;;;;1.83;1.70;;;0.60;99.90;;;;;;5128675;27;20648;-69
2023/01/23 03:51:49;;;;;;;1.48;0.80;;;0.60;99.90;;;;;;5125306;27;20247;-69
2023/01/23 03:54:17;;;;;;;4.93;1.45;;;0.60;99.90;;;;;;5135296;27;20201;-68
2023/01/23 03:56:44;;;;;;;2.17;2.08;;;0.40;99.90;;;;;;5126032;27;20232;-69
2023/01/23 03:59:12;;;;;;;3.40;3.10;;;0.50;99.90;;;;;;5114329;27;20243;-69
2023/01/23 04:01:41;;;;;;;2.08;0.98;;;0.50;99.90;;;;;;5123602;27;20311;-68
2023/01/23 04:04:09;;;;;;;0.63;0.63;;;0.60;99.90;;;;;;5134859;27;20219;-69
2023/01/23 04:06:36;;;;;;;0.95;0.95;;;0.60;99.90;;;;;;5134705;27;20300;-68
2023/01/23 04:09:04;;;;;;;2.45;2.05;;;0.60;99.90;;;;;;5134169;27;20217;-68
2023/01/23 04:11:31;;;;;;;2.58;1.38;;;0.50;99.90;;;;;;5134542;27;20274;-70
2023/01/23 04:13:57;;;;;;;1.75;1.40;;;0.60;99.90;;;;;;5134801;27;20197;-68
2023/01/23 04:16:28;;;;;;;1.25;1.02;;;0.60;99.90;;;;;;5135057;27;20221;-69
2023/01/23 04:18:54;;;;;;;5.53;1.95;;;0.70;99.90;;;;;;5134408;27;20197;-70
2023/01/23 04:21:23;;;;;;;1.85;1.40;;;0.80;99.90;;;;;;5134208;27;20316;-68
2023/01/23 04:23:49;;;;;;;1.58;1.42;;;0.80;99.90;;;;;;5135121;27;20226;-68
2023/01/23 04:26:16;;;;;;;2.40;2.00;;;0.70;99.90;;;;;;5134733;27;20417;-69
2023/01/23 04:28:43;;;;;;;2.42;2.30;;;0.70;99.90;;;;;;5133545;27;20220;-68
2023/01/23 04:31:10;;;;;;;2.58;1.65;;;0.70;99.90;;;;;;5134663;27;20774;-68
2023/01/23 04:33:37;;;;;;;2.30;1.65;;;0.70;99.90;;;;;;5134768;27;20201;-69
2023/01/23 04:36:06;;;;;;;0.88;0.88;;;0.80;99.90;;;;;;5133824;27;20212;-69
2023/01/23 04:38:34;;;;;;;3.38;3.10;;;0.80;99.90;;;;;;5132768;27;20210;-69
2023/01/23 04:41:02;;;;;;;3.45;2.55;;;0.80;99.90;;;;;;5124021;27;20258;-69
2023/01/23 04:43:29;;;;;;;1.33;1.27;;;0.80;99.90;;;;;;5135072;27;20201;-69
2023/01/23 04:45:56;;;;;;;2.97;2.45;;;0.70;99.90;;;;;;5123292;27;20240;-68
2023/01/23 04:48:24;;;;;;;0.77;0.77;;;0.70;99.90;;;;;;5113524;28;20207;-70
2023/01/23 04:50:51;;;;;;;3.53;1.67;;;0.80;99.90;;;;;;5119517;27;20726;-69
2023/01/23 04:53:18;;;;;;;1.73;1.20;;;0.80;99.90;;;;;;5129107;27;20300;-69
2023/01/23 04:55:48;;;;;;;3.38;3.17;;;0.80;99.90;;;;;;5130357;27;20225;-69
2023/01/23 04:58:16;;;;;;;6.20;1.98;;;0.80;99.90;;;;;;5125323;27;20206;-69
2023/01/23 05:00:43;;;;;;;5.30;2.00;;;0.80;99.90;;;;;;5113970;27;20209;-69
2023/01/23 05:03:09;;;;;;;1.55;1.45;;;0.80;99.90;;;;;;5130553;27;20198;-69
2023/01/23 05:05:36;;;;;;;3.40;2.17;;;0.80;99.90;;;;;;5129211;27;20213;-69
2023/01/23 05:08:04;;;;;;;1.30;1.05;;;0.80;99.90;;;;;;5110394;27;20243;-68
2023/01/23 05:10:30;;;;;;;1.13;1.13;;;0.80;99.90;;;;;;5114072;27;20556;-69
2023/01/23 05:12:59;;;;;;;1.98;1.88;;;0.80;99.90;;;;;;5131178;27;20194;-69
2023/01/23 05:15:25;;;;;;;0.90;0.90;;;0.90;99.90;;;;;;5130432;27;20767;-69
2023/01/23 05:17:52;;;;;;;2.67;2.47;;;0.80;99.90;;;;;;5130752;27;20197;-69
2023/01/23 05:20:22;;;;;;;1.23;1.20;;;0.90;99.90;;;;;;5125967;27;20200;-69
2023/01/23 05:22:52;;;;;;;4.95;2.33;;;0.90;99.90;;;;;;5130465;27;20189;-69
2023/01/23 05:25:20;;;;;;;4.70;2.15;;;0.90;99.90;;;;;;5119486;27;20292;-70
2023/01/23 05:27:47;;;;;;;1.60;1.50;;;0.90;99.90;;;;;;5128971;27;20771;-70
2023/01/23 05:30:16;;;;;;;1.55;1.45;;;0.80;99.90;;;;;;5127488;27;20208;-69
2023/01/23 05:32:43;;;;;;;2.55;1.77;;;0.80;99.90;;;;;;5130574;27;20208;-69
2023/01/23 05:35:11;;;;;;;1.80;1.70;;;0.80;99.90;;;;;;5129204;27;20212;-70
2023/01/23 05:37:38;;;;;;;2.90;0.90;;;0.80;99.90;;;;;;5101518;28;20202;-70
2023/01/23 05:40:07;;;;;;;2.63;2.53;;;0.80;99.90;;;;;;5112110;27;20670;-69
2023/01/23 05:42:34;;;;;;;1.30;0.82;;;0.70;99.90;;;;;;5127224;27;20209;-69
2023/01/23 05:45:01;;;;;;;1.10;0.80;;;0.70;99.90;;;;;;5130463;27;20684;-69
2023/01/23 05:47:29;;;;;;;2.08;1.98;;;0.70;99.90;;;;;;5130840;27;20551;-70
2023/01/23 05:49:56;;;;;;;3.58;2.95;;;0.70;99.90;;;;;;5129224;27;20312;-70
2023/01/23 05:52:23;;;;;;;3.95;2.03;;;0.70;99.90;;;;;;5121025;27;20241;-69
2023/01/23 05:54:50;;;;;;;6.05;4.63;;;0.60;99.90;;;;;;5116092;27;21273;-69
2023/01/23 05:57:17;;;;;;;1.40;1.27;;;0.60;99.90;;;;;;5125533;27;20225;-69
2023/01/23 05:59:44;;;;;;;3.30;1.70;;;1.10;99.90;;;;;;5129246;27;20208;-69
2023/01/23 06:02:11;;;;;;;5.18;2.92;;;0.60;99.90;;;;;;5127953;27;20808;-69
2023/01/23 06:04:39;;;;;;;0.70;0.70;;;0.30;99.90;;;;;;5114120;27;20224;-70
2023/01/23 06:07:08;;;;;;;3.22;1.83;;;0.80;99.90;;;;;;5128048;27;20217;-69
2023/01/23 06:09:34;;;;;;;1.35;0.95;;;0.80;99.90;;;;;;5127749;27;20282;-69
2023/01/23 06:12:01;;;;;;;2.55;1.92;;;0.60;99.90;;;;;;5127981;27;20589;-69
2023/01/23 06:14:28;;;;;;;2.30;2.20;;;0.80;99.90;;;;;;5115906;27;20202;-69
2023/01/23 06:16:55;;;;;;;7.07;2.58;;;0.70;99.90;;;;;;5108434;28;20729;-69
2023/01/23 06:19:22;;;;;;;0.80;0.80;;;0.70;99.90;;;;;;5116774;27;20200;-68
2023/01/23 06:21:50;;;;;;;1.38;1.30;;;0.70;99.90;;;;;;5113741;27;20221;-69
2023/01/23 06:24:17;;;;;;;1.10;0.77;;;0.70;99.90;;;;;;5109191;27;20198;-70
2023/01/23 06:26:44;;;;;;;2.63;2.10;;;0.60;99.90;;;;;;5127877;27;20574;-70
2023/01/23 06:29:11;;;;;;;1.58;1.48;;;0.60;99.90;;;;;;5127525;27;20221;-70
2023/01/23 06:31:38;;;;;;;2.10;1.45;;;0.60;99.90;;;;;;5128878;27;20213;-69
2023/01/23 06:34:04;;;;;;;2.58;1.45;;;0.60;99.90;;;;;;5128783;27;20212;-69
2023/01/23 06:36:31;;;;;;;1.30;0.80;;;0.60;99.90;;;;;;5127854;27;20221;-68
2023/01/23 06:39:00;;;;;;;2.35;2.25;;;0.60;99.90;;;;;;5120637;27;20273;-68
2023/01/23 06:41:26;;;;;;;1.02;1.02;;;0.60;99.90;;;;;;5113477;27;20324;-69
2023/01/23 06:43:54;;;;;;;2.40;2.10;;;0.60;99.90;;;;;;5122201;27;20295;-70
2023/01/23 06:46:20;;;;;;;3.80;1.50;;;0.70;99.90;;;;;;5122357;27;20604;-69
2023/01/23 06:48:47;;;;;;;4.00;1.27;;;0.60;99.90;;;;;;5107796;27;20641;-69
2023/01/23 06:51:14;;;;;;;1.40;0.90;;;0.60;99.90;;;;;;5122232;27;20217;-69
2023/01/23 06:53:41;;;;;;;1.27;1.23;;;0.70;99.90;;;;;;5124300;27;20200;-66
2023/01/23 06:56:10;;;;;;;1.52;1.42;;;0.70;99.90;;;;;;5128436;27;20229;-69
2023/01/23 06:58:38;;;;;;;1.20;1.20;;;0.70;99.90;;;;;;5115190;27;20204;-68
2023/01/23 07:01:09;;;;;;;0.82;0.82;;;0.60;99.90;;;;;;5124235;27;20240;-69
2023/01/23 07:03:36;;;;;;;1.85;1.30;;;0.70;99.90;;;;;;5126774;27;20197;-69
2023/01/23 07:06:05;;;;;;;1.58;1.08;;;0.80;99.90;;;;;;5106958;28;20225;-68
2023/01/23 07:08:32;;;;;;;1.60;1.10;;;0.70;99.90;;;;;;5123684;27;20205;-69
2023/01/23 07:10:59;;;;;;;0.60;0.60;;;0.70;99.90;;;;;;5110400;27;20232;-71
2023/01/23 07:13:28;;;;;;;6.75;2.00;;;1.00;99.90;;;;;;5108734;27;20897;-69
2023/01/23 07:15:55;;;;;;;0.57;0.57;;;0.70;99.90;;;;;;5107225;28;20214;-68
2023/01/23 07:18:22;;;;;;;1.63;1.52;;;0.70;99.90;;;;;;5106646;28;20204;-69
2023/01/23 07:20:49;;;;;;;1.65;1.58;;;0.80;99.90;;;;;;5108999;27;20245;-69
2023/01/23 07:23:16;;;;;;;3.33;1.95;;;0.80;99.90;;;;;;5113550;27;20280;-71
2023/01/23 07:25:44;;;;;;;2.47;2.17;;;0.80;99.90;;;;;;5124778;27;20233;-69
2023/01/23 07:28:11;;;;;;;1.30;0.95;;;0.80;99.90;;;;;;5116464;27;20194;-69
2023/01/23 07:30:39;;;;;;;1.08;1.08;;;0.80;99.90;;;;;;5120492;27;20235;-69
2023/01/23 07:33:06;;;;;;;4.40;2.08;;;0.80;99.90;;;;;;5105373;28;20761;-68
2023/01/23 07:35:33;;;;;;;1.77;1.67;;;0.80;99.90;;;;;;5107833;28;20228;-69
2023/01/23 07:38:00;;;;;;;3.72;2.70;;;0.80;99.90;;;;;;5113018;27;20204;-69
2023/01/23 07:40:27;;;;;;;3.33;1.85;;;0.80;99.90;;;;;;5123754;28;20258;-70
2023/01/23 07:42:54;;;;;;;1.85;1.02;;;0.80;99.90;;;;;;5128083;28;20276;-68
2023/01/23 07:45:20;;;;;;;1.05;1.00;;;0.80;99.90;;;;;;5127735;28;20201;-68
2023/01/23 07:47:48;;;;;;;1.95;1.40;;;0.80;99.90;;;;;;5126920;28;20198;-69
2023/01/23 07:50:15;;;;;;;2.05;1.77;;;0.80;99.90;;;;;;5126504;28;20228;-67
2023/01/23 07:52:42;;;;;;;2.60;2.47;;;0.70;99.90;;;;;;5127250;28;20213;-70
2023/01/23 07:55:09;;;;;;;0.60;0.55;;;0.70;99.90;;;;;;5114618;28;20679;-68
2023/01/23 07:57:36;;;;;;;2.60;2.40;;;0.70;99.90;;;;;;5126904;28;20201;-68
2023/01/23 08:00:04;;;;;;;0.88;0.88;;;0.90;99.90;;;;;;5126221;28;20227;-69
2023/01/23 08:02:31;;;;;;;0.77;0.77;;;0.50;99.90;;;;;;5122807;28;20197;-68
2023/01/23 08:04:59;;;;;;;1.65;1.55;;;0.80;99.90;;;;;;5127263;28;20201;-71
2023/01/23 08:07:26;;;;;;;2.17;1.63;;;0.80;99.90;;;;;;5114634;28;20222;-68
2023/01/23 08:09:53;;;;;;;0.63;0.63;;;1.50;99.90;;;;;;5107541;28;20209;-68
2023/01/23 08:12:19;;;;;;;3.33;3.13;;;0.80;99.90;;;;;;5123295;28;20223;-69
2023/01/23 08:14:47;;;;;;;2.55;0.93;;;0.90;99.90;;;;;;5110907;28;20619;-69
2023/01/23 08:17:14;;;;;;;1.30;1.17;;;0.90;99.90;;;;;;5127311;28;20743;-68
2023/01/23 08:19:41;;;;;;;2.17;2.08;;;0.70;99.90;;;;;;5127046;28;20296;-68
2023/01/23 08:22:09;;;;;;;1.45;1.35;;;0.80;99.90;;;;;;5127101;28;20308;-69
2023/01/23 08:24:36;;;;;;;3.42;3.13;;;0.80;99.90;;;;;;5123664;28;20594;-67
2023/01/23 08:27:03;;;;;;;4.00;2.72;;;0.80;99.90;;;;;;5116362;28;20584;-69
2023/01/23 08:29:31;;;;;;;1.63;1.05;;;0.80;99.90;;;;;;5125257;27;20199;-69
2023/01/23 08:31:58;;;;;;;1.50;1.33;;;1.10;99.90;;;;;;5118137;27;20253;-69
2023/01/23 08:34:24;;;;;;;2.42;2.22;;;0.90;99.90;;;;;;5126026;27;20201;-67
2023/01/23 08:36:51;;;;;;;4.60;0.82;;;1.00;99.90;;;;;;5120762;27;20247;-69
2023/01/23 08:39:20;;;;;;;0.77;0.77;;;0.90;99.90;;;;;;5122369;27;20204;-69
2023/01/23 08:41:47;;;;;;;1.70;1.60;;;0.90;99.90;;;;;;5122526;27;20232;-68
2023/01/23 08:44:13;;;;;;;2.55;2.35;;;1.00;99.90;;;;;;5130715;27;20624;-69
2023/01/23 08:46:41;;;;;;;1.10;0.80;;;1.10;99.90;;;;;;5131098;27;20306;-68
2023/01/23 08:49:08;;;;;;;3.42;1.65;;;1.10;99.90;;;;;;5130409;27;20223;-69
2023/01/23 08:51:35;;;;;;;2.80;1.95;;;1.00;99.90;;;;;;5119510;27;20350;-69
2023/01/23 08:54:02;;;;;;;4.68;1.95;;;1.10;99.90;;;;;;5122224;27;20284;-68
2023/01/23 08:56:30;;;;;;;2.15;1.08;;;0.90;99.90;;;;;;5129451;27;20240;-68
2023/01/23 08:58:57;;;;;;;4.13;1.50;;;1.00;99.90;;;;;;5129405;27;20656;-69
2023/01/23 09:01:25;;;;;;;5.88;1.55;;;1.10;99.90;;;;;;5122416;27;20214;-69
2023/01/23 09:03:53;;;;;;;3.63;2.00;;;1.10;99.90;;;;;;5110076;27;20273;-68
2023/01/23 09:06:21;;;;;;;2.10;1.92;;;1.00;99.90;;;;;;5114764;27;20217;-69
2023/01/23 09:08:49;;;;;;;1.17;0.95;;;1.00;99.90;;;;;;5128981;27;20200;-69
2023/01/23 09:11:16;;;;;;;1.52;1.40;;;1.10;99.90;;;;;;5129369;27;20233;-69
2023/01/23 09:13:45;;;;;;;2.67;1.58;;;1.10;99.90;;;;;;5130714;27;20189;-71
2023/01/23 09:16:12;;;;;;;1.60;1.50;;;1.10;99.90;;;;;;5130645;27;20221;-69
2023/01/23 09:18:39;;;;;;;1.55;1.08;;;1.10;99.90;;;;;;5129971;27;20204;-69
2023/01/23 09:21:07;;;;;;;1.60;1.50;;;1.20;99.90;;;;;;5129625;27;20296;-70
2023/01/23 09:23:34;;;;;;;1.88;1.70;;;1.30;99.90;;;;;;5129282;27;20247;-69
2023/01/23 09:26:06;;;;;;;5.80;4.13;;;1.20;99.90;;;;;;5129933;27;20231;-68
2023/01/23 09:28:33;;;;;;;3.08;1.90;;;1.30;99.90;;;;;;5129334;27;20570;-68
2023/01/23 09:31:06;;;;;;;3.60;2.47;;;1.30;99.90;;;;;;5128381;27;20319;-70
2023/01/23 09:33:32;;;;;;;1.20;1.13;;;1.30;99.90;;;;;;5129867;27;20189;-69
2023/01/23 09:35:59;;;;;;;1.55;1.40;;;1.30;99.90;;;;;;5128777;27;20693;-70
2023/01/23 09:38:26;;;;;;;2.30;2.10;;;1.30;99.90;;;;;;5117916;27;20228;-69
2023/01/23 09:40:57;;;;;;;2.75;2.08;;;1.40;99.90;;;;;;5127521;27;20308;-68
2023/01/23 09:43:28;;;;;;;5.22;2.35;;;1.40;99.90;;;;;;5110194;27;20200;-69
2023/01/23 09:46:02;;;;;;;2.00;1.33;;;1.30;99.90;;;;;;5108889;27;20222;-68
2023/01/23 09:48:39;;;;;;;1.95;1.27;;;1.40;99.90;;;;;;5107860;27;20193;-68
2023/01/23 09:51:14;;;;;;;1.30;1.20;;;1.30;99.90;;;;;;5115557;27;20327;-69
2023/01/23 09:53:41;;;;;;;1.20;1.00;;;1.40;99.90;;;;;;5129052;27;20208;-69
2023/01/23 09:56:22;;;;;;;2.50;2.28;;;1.30;99.90;;;;;;5128858;27;20585;-69
2023/01/23 09:58:58;;;;;;;1.60;1.48;;;1.30;99.90;;;;;;5127961;27;20296;-69
2023/01/23 10:01:28;;;;;;;0.82;0.82;;;1.40;99.90;;;;;;5110499;27;20603;-68
2023/01/23 10:03:57;;;;;;;1.27;1.17;;;1.30;99.90;;;;;;5115080;27;20202;-69
2023/01/23 10:06:26;;;;;;;0.77;0.77;;;1.40;99.90;;;;;;5122506;27;20748;-69
2023/01/23 10:09:33;;;;;;;1.80;1.63;;;1.40;99.90;;;;;;5108714;27;20205;-68
2023/01/23 10:12:09;;;;;;;1.63;1.52;;;1.50;99.90;;;;;;5043334;28;20259;-69
2023/01/23 10:14:51;;;;;;;1.13;1.13;;;1.40;99.90;;;;;;5119566;27;20209;-69
2023/01/23 10:17:24;;;;;;;1.75;1.65;;;1.40;99.90;;;;;;5129000;27;20584;-67
2023/01/23 10:20:16;;;;;;;0.95;0.93;;;1.50;99.90;;;;;;5127044;27;20291;-69
2023/01/23 10:22:50;;;;;;;1.08;1.08;;;1.60;99.60;;;;;;5128983;27;20667;-71
2023/01/23 10:25:20;;;;;;;5.45;1.40;;;1.50;99.70;;;;;;5127293;27;20338;-69
2023/01/23 10:27:49;;;;;;;1.90;1.85;;;1.50;99.70;;;;;;5128160;27;20612;-69
2023/01/23 10:30:26;;;;;;;3.30;1.65;;;1.60;99.20;;;;;;5113534;27;20565;-69
2023/01/23 10:32:58;;;;;;;1.13;1.10;;;1.60;99.40;;;;;;5124580;27;20201;-69
2023/01/23 10:35:34;;;;;;;1.02;0.85;;;1.70;99.50;;;;;;5127482;27;20649;-69
2023/01/23 10:38:06;;;;;;;1.10;1.02;;;1.70;99.40;;;;;;5116400;27;20252;-68
2023/01/23 10:43:18;;;;;;;1.00;0.95;;;1.80;99.20;;;;;;5123679;27;20293;-69
2023/01/23 10:45:46;;;;;;;5.25;1.95;;;1.70;99.20;;;;;;5120981;27;20221;-69
2023/01/23 10:48:38;;;;;;;1.15;1.05;;;1.70;99.40;;;;;;5127890;27;20275;-69
2023/01/23 10:51:24;;;;;;;1.40;1.30;;;1.60;99.20;;;;;;5125906;27;20228;-68
2023/01/23 10:54:01;;;;;;;2.97;1.80;;;1.50;99.60;;;;;;5126279;27;20193;-69
2023/01/23 10:56:28;;;;;;;3.05;2.78;;;1.50;99.80;;;;;;5128453;27;20213;-69
2023/01/23 10:58:56;;;;;;;0.70;0.70;;;1.50;99.90;;;;;;5125771;27;20200;-68
2023/01/23 11:01:26;;;;;;;0.40;0.30;;;1.60;99.90;;;;;;5119744;27;20281;-68
2023/01/23 11:03:53;;;;;;;3.00;1.98;;;1.50;99.90;;;;;;5122468;27;20197;-69
2023/01/23 11:06:24;;;;;;;1.15;0.90;;;1.50;99.90;;;;;;5123112;27;20232;-69
2023/01/23 11:08:56;;;;;;;1.85;1.08;;;1.50;99.90;;;;;;5108195;28;20189;-69
2023/01/23 11:11:25;;;;;;;2.22;1.73;;;1.50;99.90;;;;;;5107276;28;20244;-68
2023/01/23 11:14:05;;;;;;;1.95;1.85;;;1.60;99.90;;;;;;5107366;28;20198;-69
2023/01/23 11:16:33;;;;;;;2.67;2.45;;;1.60;99.90;;;;;;5107716;28;20222;-68
2023/01/23 11:19:11;;;;;;;0.93;0.93;;;1.60;99.90;;;;;;5108097;27;20273;-69
2023/01/23 11:21:52;;;;;;;1.15;0.95;;;1.60;99.90;;;;;;5121504;27;20217;-68
2023/01/23 11:24:21;;;;;;;4.32;0.82;;;1.70;99.90;;;;;;5125407;27;20207;-69
2023/01/23 11:26:50;;;;;;;2.40;1.67;;;1.60;99.90;;;;;;5126597;27;20251;-70
2023/01/23 11:29:22;;;;;;;2.75;0.95;;;1.70;99.90;;;;;;5124826;27;20196;-69
2023/01/23 11:31:53;;;;;;;2.63;1.30;;;1.70;99.90;;;;;;5109344;28;20278;-69
2023/01/23 11:34:25;;;;;;;3.20;1.92;;;1.70;99.90;;;;;;5127079;27;20204;-69
2023/01/23 11:36:59;;;;;;;1.70;1.60;;;1.80;99.90;;;;;;5123117;27;20222;-70
2023/01/23 11:39:41;;;;;;;2.05;1.63;;;1.70;99.90;;;;;;5113768;27;20201;-69
2023/01/23 11:42:10;;;;;;;3.00;1.98;;;1.80;99.90;;;;;;5107171;28;20225;-69
2023/01/23 11:44:38;;;;;;;0.82;0.82;;;1.80;99.90;;;;;;5106204;28;20205;-67
2023/01/23 11:47:37;;;;;;;1.80;1.52;;;1.80;99.90;;;;;;5117329;28;20249;-68
2023/01/23 11:50:31;;;;;;;0.55;0.55;;;1.70;99.90;;;;;;5127036;28;20185;-71
2023/01/23 11:53:04;;;;;;;2.30;2.17;;;1.90;99.90;;;;;;5120693;28;20301;-69
2023/01/23 11:56:07;;;;;;;3.17;1.75;;;1.70;99.90;;;;;;5123106;28;20225;-70
2023/01/23 11:59:16;;;;;;;5.03;4.72;;;1.80;99.90;;;;;;5066460;28;20220;-69
2023/01/23 12:01:57;;;;;;;1.38;1.30;;;1.90;99.90;;;;;;5117452;28;20225;-70
2023/01/23 12:04:47;;;;;;;2.15;1.58;;;1.80;99.90;;;;;;5130625;27;20205;-70
2023/01/23 12:07:19;;;;;;;1.60;1.50;;;1.80;99.90;;;;;;5122824;27;20224;-70
2023/01/23 12:10:02;;;;;;;5.78;2.15;;;1.80;99.90;;;;;;5130782;27;20250;-69
2023/01/23 12:12:50;;;;;;;1.85;1.67;;;1.90;99.90;;;;;;5131681;27;20343;-69
2023/01/23 12:15:29;;;;;;;11.15;2.00;;;1.90;99.90;;;;;;5131204;27;20193;-68
2023/01/23 12:18:04;;;;;;;1.30;1.08;;;1.80;99.90;;;;;;5131525;27;20212;-69
2023/01/23 12:20:44;;;;;;;3.35;2.20;;;1.70;99.90;;;;;;5130554;27;20224;-69
2023/01/23 12:23:44;;;;;;;1.95;1.85;;;1.80;99.90;;;;;;5132070;27;20204;-69
2023/01/23 12:26:17;;;;;;;2.90;1.45;;;1.80;99.90;;;;;;5123932;27;20224;-70
2023/01/23 12:29:00;;;;;;;0.85;0.85;;;1.90;99.90;;;;;;5130852;27;20694;-69
2023/01/23 12:31:40;;;;;;;2.55;1.70;;;1.90;99.90;;;;;;5112982;27;20280;-69
2023/01/23 12:34:25;;;;;;;1.50;1.45;;;1.90;99.90;;;;;;5131885;27;20205;-70
2023/01/23 12:37:14;;;;;;;3.30;1.75;;;2.00;99.90;;;;;;5127201;27;20661;-70
2023/01/23 12:39:57;;;;;;;1.00;0.85;;;2.00;99.90;;;;;;5120608;27;20678;-69
2023/01/23 12:42:31;;;;;;;1.90;1.80;;;2.20;99.90;;;;;;5110247;28;20731;-71
2023/01/23 12:45:03;;;;;;;2.55;2.28;;;2.20;99.90;;;;;;5110761;28;20206;-70
2023/01/23 12:47:36;;;;;;;8.23;1.90;;;2.10;99.90;;;;;;5124196;27;20545;-70
2023/01/23 12:50:12;;;;;;;2.65;1.27;;;2.10;99.90;;;;;;5129818;27;20209;-69
2023/01/23 12:52:44;;;;;;;2.15;2.05;;;2.50;99.90;;;;;;5131268;27;20252;-69
2023/01/23 12:55:19;;;;;;;0.90;0.70;;;2.20;99.90;;;;;;5129350;27;20204;-70
2023/01/23 12:57:51;;;;;;;3.63;2.50;;;2.00;99.90;;;;;;5110277;28;20232;-70
2023/01/23 13:00:30;;;;;;;1.98;0.88;;;1.90;99.90;;;;;;5116131;27;20216;-69
2023/01/23 13:03:08;;;;;;;4.50;1.60;;;2.50;99.90;;;;;;5130294;27;20207;-70
2023/01/23 13:05:43;;;;;;;0.65;0.60;;;2.10;99.90;;;;;;5130735;27;20601;-70
2023/01/23 13:08:20;;;;;;;1.63;1.52;;;2.10;99.90;;;;;;5109905;28;20216;-69
2023/01/23 13:13:48;;;;;;;4.40;1.58;;;2.20;99.90;;;;;;5111224;27;20250;-69
2023/01/23 13:16:16;;;;;;;4.00;2.20;;;2.30;99.90;;;;;;5109710;27;20226;-69
2023/01/23 13:27:50;;;;;;;2.22;1.60;;;2.30;99.90;;;;;;5118601;27;20226;-70
2023/01/23 13:30:41;;;;;;;4.65;1.55;;;2.30;99.90;;;;;;5020601;28;20200;-69
2023/01/23 13:33:50;;;;;;;1.52;1.08;;;2.30;99.90;;;;;;5123966;27;20651;-67
2023/01/23 13:36:32;;;;;;;1.00;0.98;;;2.50;99.90;;;;;;5124104;27;20225;-69